createdAt,value
2022-09-28T00:01:57.532Z,1.23
2022-09-28T00:04:26.160Z,0.75
2022-09-28T00:06:56.102Z,0.70
2022-09-28T00:09:24.652Z,1.42
2022-09-28T00:11:53.756Z,1.58
2022-09-28T00:14:22.493Z,0.60
2022-09-28T00:16:51.450Z,1.02
2022-09-28T00:19:20.363Z,2.08
2022-09-28T00:21:48.908Z,1.60
2022-09-28T00:24:23.001Z,0.52
2022-09-28T00:26:56.777Z,0.93
2022-09-28T00:29:28.414Z,0.50
2022-09-28T00:32:02.437Z,0.70
2022-09-28T00:34:34.824Z,0.90
2022-09-28T00:37:05.707Z,0.55
2022-09-28T00:39:38.455Z,0.85
2022-09-28T00:42:15.656Z,0.90
2022-09-28T00:44:54.289Z,0.43
2022-09-28T00:47:49.625Z,0.68
2022-09-28T00:50:28.134Z,0.60
2022-09-28T00:53:04.855Z,0.55
2022-09-28T00:55:43.587Z,0.30
2022-09-28T00:58:20.609Z,0.30
2022-09-28T01:00:50.987Z,1.48
2022-09-28T01:03:20.132Z,0.43
2022-09-28T01:05:51.877Z,0.75
2022-09-28T01:08:23.352Z,0.50
2022-09-28T01:10:53.547Z,0.40
2022-09-28T01:13:25.760Z,0.70
2022-09-28T01:16:08.506Z,0.45
2022-09-28T01:18:49.820Z,0.45
2022-09-28T01:21:22.469Z,0.80
2022-09-28T01:24:24.585Z,0.40
2022-09-28T01:27:13.701Z,0.50
2022-09-28T01:29:51.711Z,0.30
2022-09-28T01:32:36.239Z,0.43
2022-09-28T01:35:11.296Z,0.75
2022-09-28T01:37:48.659Z,0.30
2022-09-28T01:40:19.620Z,0.63
2022-09-28T01:42:54.541Z,1.25
2022-09-28T01:45:30.303Z,0.93
2022-09-28T01:48:06.099Z,0.50
2022-09-28T01:50:40.870Z,0.93
2022-09-28T01:53:17.873Z,0.52
2022-09-28T01:55:51.549Z,0.57
2022-09-28T01:58:30.071Z,0.45
2022-09-28T02:01:07.071Z,0.25
2022-09-28T02:03:43.462Z,0.52
2022-09-28T02:06:20.347Z,0.98
2022-09-28T02:08:56.139Z,1.85
2022-09-28T02:11:25.053Z,0.30
2022-09-28T02:14:01.428Z,0.30
2022-09-28T02:16:38.446Z,0.35
2022-09-28T02:19:09.305Z,0.40
2022-09-28T02:21:45.790Z,0.32
2022-09-28T02:24:22.640Z,0.57
2022-09-28T02:26:54.649Z,0.57
2022-09-28T02:29:25.547Z,0.28
2022-09-28T02:31:54.525Z,0.40
2022-09-28T02:34:23.148Z,0.70
2022-09-28T02:36:51.938Z,0.30
2022-09-28T02:39:20.443Z,0.30
2022-09-28T02:41:59.070Z,0.40
2022-09-28T02:45:01.413Z,0.30
2022-09-28T02:47:53.991Z,1.50
2022-09-28T02:50:38.207Z,0.55
2022-09-28T02:53:46.630Z,0.20
2022-09-28T02:56:42.414Z,0.68
2022-09-28T02:59:29.984Z,0.35
2022-09-28T03:02:13.009Z,0.50
2022-09-28T03:04:50.703Z,0.45
2022-09-28T03:07:28.898Z,0.32
2022-09-28T03:10:06.812Z,0.28
2022-09-28T03:12:37.453Z,0.38
2022-09-28T03:15:13.895Z,0.40
2022-09-28T03:17:43.958Z,0.70
2022-09-28T03:20:13.061Z,0.40
2022-09-28T03:22:41.674Z,0.55
2022-09-28T03:25:11.426Z,0.50
2022-09-28T03:27:40.495Z,0.43
2022-09-28T03:30:11.279Z,0.85
2022-09-28T03:32:41.157Z,0.40
2022-09-28T03:35:11.653Z,0.57
2022-09-28T03:37:40.350Z,0.30
2022-09-28T03:40:09.772Z,0.75
2022-09-28T03:42:38.908Z,2.22
2022-09-28T03:45:08.916Z,3.30
2022-09-28T03:47:37.497Z,8.20
2022-09-28T03:50:07.320Z,6.47
2022-09-28T03:52:37.301Z,2.88
2022-09-28T03:55:06.703Z,4.30
2022-09-28T03:57:35.320Z,0.90
2022-09-28T04:00:04.488Z,0.88
2022-09-28T04:02:33.266Z,1.95
2022-09-28T04:05:02.002Z,1.00
2022-09-28T04:07:31.358Z,1.52
2022-09-28T04:10:01.382Z,0.90
2022-09-28T04:12:29.995Z,0.60
2022-09-28T04:14:58.577Z,0.60
2022-09-28T04:17:27.180Z,0.70
2022-09-28T04:19:55.742Z,0.70
2022-09-28T04:22:24.894Z,0.75
2022-09-28T04:24:53.460Z,2.50
2022-09-28T04:27:40.958Z,2.55
2022-09-28T04:30:12.010Z,1.63
2022-09-28T04:32:41.036Z,1.33
2022-09-28T04:35:11.981Z,3.40
2022-09-28T04:37:40.555Z,0.60
2022-09-28T04:40:10.779Z,1.20
2022-09-28T04:42:40.742Z,1.00
2022-09-28T04:45:11.035Z,4.70
2022-09-28T04:47:39.651Z,2.13
2022-09-28T04:50:09.472Z,1.55
2022-09-28T04:52:38.363Z,1.77
2022-09-28T04:55:08.318Z,0.88
2022-09-28T04:57:36.969Z,1.40
2022-09-28T05:00:08.828Z,1.35
2022-09-28T05:02:37.463Z,0.50
2022-09-28T05:05:07.443Z,0.47
2022-09-28T05:07:36.032Z,1.10
2022-09-28T05:10:05.298Z,4.05
2022-09-28T05:12:34.368Z,0.35
2022-09-28T05:15:02.974Z,0.50
2022-09-28T05:17:32.945Z,0.93
2022-09-28T05:20:03.011Z,1.67
2022-09-28T05:22:31.550Z,1.60
2022-09-28T05:25:00.433Z,0.82
2022-09-28T05:27:29.040Z,1.55
2022-09-28T05:29:57.632Z,1.42
2022-09-28T05:32:26.259Z,0.70
2022-09-28T05:34:56.921Z,1.20
2022-09-28T05:37:25.474Z,3.65
2022-09-28T05:39:54.061Z,2.05
2022-09-28T05:42:22.581Z,3.80
2022-09-28T05:44:51.233Z,3.58
2022-09-28T05:47:19.802Z,3.63
2022-09-28T05:49:48.438Z,2.50
2022-09-28T05:52:18.428Z,2.95
2022-09-28T05:54:47.068Z,2.00
2022-09-28T05:57:15.758Z,4.57
2022-09-28T05:59:44.304Z,5.75
2022-09-28T06:02:12.934Z,2.53
2022-09-28T06:04:41.940Z,10.80
2022-09-28T06:07:10.549Z,13.05
2022-09-28T06:09:40.536Z,5.28
2022-09-28T06:12:09.582Z,3.35
2022-09-28T06:14:38.983Z,5.20
2022-09-28T06:17:07.627Z,3.42
2022-09-28T06:19:36.211Z,4.60
2022-09-28T06:22:04.859Z,2.97
2022-09-28T06:24:33.483Z,1.70
2022-09-28T06:27:03.536Z,1.85
2022-09-28T06:29:32.183Z,2.13
2022-09-28T06:32:01.379Z,3.40
2022-09-28T06:34:30.620Z,2.65
2022-09-28T06:37:00.459Z,2.28
2022-09-28T06:39:29.048Z,1.98
2022-09-28T06:41:57.791Z,2.58
2022-09-28T06:44:27.720Z,2.70
2022-09-28T06:46:57.162Z,4.88
2022-09-28T06:49:27.853Z,4.78
2022-09-28T06:51:56.592Z,3.65
2022-09-28T06:54:25.955Z,3.33
2022-09-28T06:56:54.628Z,4.18
2022-09-28T06:59:23.214Z,3.53
2022-09-28T07:01:53.648Z,2.33
2022-09-28T07:04:22.303Z,4.20
2022-09-28T07:06:50.962Z,2.22
2022-09-28T07:09:31.647Z,2.92
2022-09-28T07:12:01.222Z,2.20
2022-09-28T07:14:47.018Z,2.53
2022-09-28T07:17:18.603Z,2.45
2022-09-28T07:19:48.064Z,2.83
2022-09-28T07:22:19.100Z,3.70
2022-09-28T07:24:50.084Z,3.83
2022-09-28T07:27:20.044Z,3.72
2022-09-28T07:29:48.721Z,5.32
2022-09-28T07:32:18.851Z,8.07
2022-09-28T07:34:48.821Z,9.57
2022-09-28T07:37:18.965Z,10.57
2022-09-28T07:40:05.405Z,11.80
2022-09-28T07:42:34.512Z,11.88
2022-09-28T07:45:03.337Z,11.55
2022-09-28T07:47:35.225Z,12.23
2022-09-28T07:50:04.579Z,11.93
2022-09-28T07:52:35.349Z,10.77
2022-09-28T07:55:07.249Z,9.68
2022-09-28T07:57:36.377Z,16.25
2022-09-28T08:00:09.148Z,17.23
2022-09-28T08:02:39.539Z,15.88
2022-09-28T08:05:10.099Z,28.73
2022-09-28T08:07:39.365Z,17.77
2022-09-28T08:10:08.996Z,14.90
2022-09-28T08:12:40.777Z,14.65
2022-09-28T08:15:12.181Z,16.25
2022-09-28T08:17:47.849Z,15.98
2022-09-28T08:20:34.423Z,13.25
2022-09-28T08:23:05.501Z,13.52
2022-09-28T08:25:34.785Z,12.88
2022-09-28T08:28:03.768Z,14.68
2022-09-28T08:30:32.670Z,9.40
2022-09-28T08:33:02.697Z,8.43
2022-09-28T08:35:31.615Z,8.07
2022-09-28T08:38:03.473Z,8.40
2022-09-28T08:40:49.633Z,13.20
2022-09-28T08:43:42.508Z,14.02
2022-09-28T08:46:14.799Z,14.50
2022-09-28T08:49:20.529Z,12.20
2022-09-28T08:51:51.715Z,11.52
2022-09-28T08:54:34.489Z,15.35
2022-09-28T08:57:08.408Z,20.20
2022-09-28T08:59:49.611Z,18.08
2022-09-28T09:02:25.481Z,16.80
2022-09-28T09:04:57.075Z,15.70
2022-09-28T09:08:13.117Z,11.70
2022-09-28T09:10:54.124Z,8.20
2022-09-28T09:14:02.500Z,9.88
2022-09-28T09:16:47.137Z,9.95
2022-09-28T09:19:22.921Z,9.07
2022-09-28T09:22:01.836Z,5.68
2022-09-28T09:24:44.488Z,6.00
2022-09-28T09:27:29.911Z,4.72
2022-09-28T09:30:08.141Z,4.40
2022-09-28T09:33:05.469Z,3.80
2022-09-28T09:36:05.402Z,3.10
2022-09-28T09:39:00.391Z,3.25
2022-09-28T09:41:48.888Z,3.20
2022-09-28T09:44:50.616Z,3.33
2022-09-28T09:47:25.293Z,2.25
2022-09-28T09:50:06.819Z,1.50
2022-09-28T09:52:52.107Z,1.80
2022-09-28T09:55:30.228Z,2.30
2022-09-28T09:58:07.082Z,1.33
2022-09-28T10:00:36.365Z,4.07
2022-09-28T10:03:05.232Z,2.88
2022-09-28T10:05:37.117Z,1.35
2022-09-28T10:08:15.616Z,1.65
2022-09-28T10:10:52.670Z,1.10
2022-09-28T10:13:21.606Z,1.20
2022-09-28T10:15:51.504Z,2.53
2022-09-28T10:18:22.371Z,1.90
2022-09-28T10:20:50.995Z,2.53
2022-09-28T10:23:25.971Z,5.28
2022-09-28T10:26:12.717Z,7.20
2022-09-28T10:28:53.102Z,2.72
2022-09-28T10:31:41.913Z,1.55
2022-09-28T10:34:14.936Z,1.73
2022-09-28T10:36:56.077Z,2.38
2022-09-28T10:39:32.809Z,1.63
2022-09-28T10:42:06.412Z,1.15
2022-09-28T10:44:50.043Z,1.02
2022-09-28T10:47:23.470Z,1.30
2022-09-28T10:49:54.877Z,0.90
2022-09-28T10:52:39.959Z,0.93
2022-09-28T10:55:32.514Z,1.13
2022-09-28T10:58:25.692Z,1.20
2022-09-28T11:01:02.549Z,2.45
2022-09-28T11:03:32.821Z,1.50
2022-09-28T11:06:05.008Z,1.00
2022-09-28T11:08:39.697Z,1.60
2022-09-28T11:11:14.826Z,1.30
2022-09-28T11:13:49.021Z,1.40
2022-09-28T11:16:28.679Z,1.00
2022-09-28T11:18:59.087Z,1.55
2022-09-28T11:21:32.216Z,6.82
2022-09-28T11:24:07.382Z,4.93
2022-09-28T11:26:43.280Z,2.88
2022-09-28T11:29:38.690Z,1.30
2022-09-28T11:32:15.497Z,4.28
2022-09-28T11:34:59.236Z,0.80
2022-09-28T11:37:49.207Z,1.45
2022-09-28T11:40:36.908Z,1.77
2022-09-28T11:43:20.964Z,5.25
2022-09-28T11:46:01.155Z,0.65
2022-09-28T11:48:42.008Z,0.98
2022-09-28T11:51:19.779Z,2.47
2022-09-28T11:53:56.035Z,1.92
2022-09-28T11:56:37.396Z,0.60
2022-09-28T11:59:13.760Z,1.27
2022-09-28T12:01:51.113Z,1.35
2022-09-28T12:04:28.049Z,1.08
2022-09-28T12:07:05.572Z,1.33
2022-09-28T12:09:43.490Z,2.35
2022-09-28T12:12:25.472Z,0.70
2022-09-28T12:14:58.661Z,0.68
2022-09-28T12:17:36.680Z,4.50
2022-09-28T12:20:19.384Z,9.52
2022-09-28T12:22:57.129Z,3.75
2022-09-28T12:25:28.175Z,1.30
2022-09-28T12:28:02.348Z,1.77
2022-09-28T12:30:40.686Z,1.33
2022-09-28T12:33:15.399Z,0.73
2022-09-28T12:36:06.234Z,0.60
2022-09-28T12:39:21.768Z,0.95
2022-09-28T12:42:09.450Z,0.95
2022-09-28T12:44:59.308Z,1.25
2022-09-28T12:47:56.298Z,0.77
2022-09-28T12:50:40.249Z,1.67
2022-09-28T12:53:47.903Z,2.33
2022-09-28T12:56:31.342Z,0.77
2022-09-28T12:59:16.390Z,1.45
2022-09-28T13:02:31.076Z,1.05
2022-09-28T13:05:39.397Z,16.27
2022-09-28T13:08:19.028Z,2.28
2022-09-28T13:11:07.539Z,3.00
2022-09-28T13:13:49.126Z,1.42
2022-09-28T13:16:32.575Z,0.70
2022-09-28T13:19:16.999Z,1.48
2022-09-28T13:21:57.898Z,1.00
2022-09-28T13:24:35.216Z,0.95
2022-09-28T13:27:11.676Z,1.85
2022-09-28T13:29:42.821Z,0.80
2022-09-28T13:32:13.041Z,0.98
2022-09-28T13:34:41.817Z,0.90
2022-09-28T13:37:24.144Z,1.20
2022-09-28T13:39:56.505Z,1.08
2022-09-28T13:42:54.490Z,0.90
2022-09-28T13:45:53.639Z,0.80
2022-09-28T13:48:29.825Z,1.00
2022-09-28T13:51:27.617Z,1.10
2022-09-28T13:54:24.403Z,0.70
2022-09-28T13:57:04.259Z,1.20
2022-09-28T13:59:35.367Z,0.90
2022-09-28T14:02:22.584Z,0.93
2022-09-28T14:04:58.944Z,0.85
2022-09-28T14:07:59.625Z,0.98
2022-09-28T14:10:52.276Z,2.05
2022-09-28T14:14:01.104Z,0.68
2022-09-28T14:16:34.913Z,2.08
2022-09-28T14:19:09.899Z,2.38
2022-09-28T14:22:18.076Z,1.40
2022-09-28T14:25:15.233Z,2.47
2022-09-28T14:28:16.895Z,1.13
2022-09-28T14:30:53.133Z,1.85
2022-09-28T14:33:29.416Z,1.20
2022-09-28T14:36:02.245Z,2.13
2022-09-28T14:38:54.487Z,1.45
2022-09-28T14:41:34.242Z,1.50
2022-09-28T14:44:10.394Z,1.10
2022-09-28T14:46:45.584Z,2.10
2022-09-28T14:49:51.384Z,1.10
2022-09-28T14:52:41.574Z,4.25
2022-09-28T14:55:17.380Z,2.22
2022-09-28T14:57:53.505Z,1.60
2022-09-28T15:00:28.333Z,7.25
2022-09-28T15:03:03.469Z,1.17
2022-09-28T15:05:40.041Z,1.55
2022-09-28T15:08:08.791Z,1.95
2022-09-28T15:10:42.720Z,1.30
2022-09-28T15:13:22.275Z,1.17
2022-09-28T15:15:56.130Z,1.40
2022-09-28T15:19:08.936Z,3.28
2022-09-28T15:21:39.738Z,2.22
2022-09-28T15:24:32.901Z,3.17
2022-09-28T15:27:03.212Z,5.03
2022-09-28T15:29:33.552Z,9.65
2022-09-28T15:32:04.185Z,2.10
2022-09-28T15:34:52.234Z,2.28
2022-09-28T15:37:25.345Z,3.25
2022-09-28T15:39:56.613Z,1.35
2022-09-28T15:42:25.879Z,1.42
2022-09-28T15:45:27.709Z,1.83
2022-09-28T15:48:19.942Z,3.20
2022-09-28T15:51:11.094Z,1.95
2022-09-28T15:53:48.483Z,2.10
2022-09-28T15:56:17.274Z,1.58
2022-09-28T15:59:09.654Z,2.10
2022-09-28T16:01:40.669Z,2.15
2022-09-28T16:04:40.938Z,1.67
2022-09-28T16:07:30.859Z,1.80
2022-09-28T16:10:34.667Z,1.77
2022-09-28T16:13:20.106Z,3.13
2022-09-28T16:15:58.184Z,1.98
2022-09-28T16:18:28.610Z,1.80
2022-09-28T16:21:24.290Z,2.47
2022-09-28T16:23:57.592Z,3.28
2022-09-28T16:26:37.415Z,5.35
2022-09-28T16:29:26.216Z,3.65
2022-09-28T16:31:55.755Z,2.72
2022-09-28T16:34:28.674Z,1.90
2022-09-28T16:36:58.739Z,1.38
2022-09-28T16:39:27.353Z,1.90
2022-09-28T16:42:02.998Z,4.65
2022-09-28T16:44:32.800Z,7.13
2022-09-28T16:47:01.407Z,6.70
2022-09-28T16:49:32.306Z,5.22
2022-09-28T16:52:02.869Z,4.60
2022-09-28T16:54:48.924Z,4.50
2022-09-28T16:57:17.869Z,2.75
2022-09-28T16:59:46.485Z,1.73
2022-09-28T17:02:45.342Z,2.78
2022-09-28T17:05:12.750Z,1.20
2022-09-28T17:07:43.474Z,1.50
2022-09-28T17:10:21.597Z,2.70
2022-09-28T17:12:50.584Z,2.10
2022-09-28T17:15:19.740Z,1.88
2022-09-28T17:17:49.391Z,1.60
2022-09-28T17:20:24.018Z,2.47
2022-09-28T17:22:54.752Z,2.92
2022-09-28T17:25:25.569Z,2.65
2022-09-28T17:27:58.327Z,2.30
2022-09-28T17:30:26.961Z,2.63
2022-09-28T17:32:55.630Z,2.13
2022-09-28T17:35:25.309Z,2.47
2022-09-28T17:37:55.653Z,3.08
2022-09-28T17:40:28.411Z,2.53
2022-09-28T17:42:57.937Z,2.65
2022-09-28T17:45:31.439Z,3.05
2022-09-28T17:48:00.792Z,5.68
2022-09-28T17:50:32.548Z,3.85
2022-09-28T17:53:06.103Z,3.88
2022-09-28T17:55:37.331Z,2.80
2022-09-28T17:58:18.172Z,2.83
2022-09-28T18:00:49.338Z,2.13
2022-09-28T18:03:21.054Z,4.50
2022-09-28T18:05:53.806Z,3.55
2022-09-28T18:08:24.028Z,3.00
2022-09-28T18:10:52.742Z,2.30
2022-09-28T18:13:21.407Z,3.05
2022-09-28T18:15:53.142Z,3.10
2022-09-28T18:18:22.537Z,2.90
2022-09-28T18:20:51.449Z,4.78
2022-09-28T18:23:20.170Z,3.00
2022-09-28T18:25:50.226Z,2.45
2022-09-28T18:28:18.991Z,2.65
2022-09-28T18:30:47.775Z,2.20
2022-09-28T18:33:16.767Z,2.60
2022-09-28T18:35:53.660Z,3.35
2022-09-28T18:38:22.869Z,2.15
2022-09-28T18:40:54.595Z,2.10
2022-09-28T18:43:23.876Z,2.47
2022-09-28T18:45:52.591Z,2.33
2022-09-28T18:48:21.325Z,1.75
2022-09-28T18:50:50.150Z,2.83
2022-09-28T18:53:20.064Z,2.45
2022-09-28T18:55:49.790Z,1.80
2022-09-28T18:58:20.163Z,2.65
2022-09-28T19:00:48.743Z,2.00
2022-09-28T19:03:17.628Z,4.03
2022-09-28T19:05:46.466Z,4.80
2022-09-28T19:08:15.663Z,2.40
2022-09-28T19:10:44.678Z,3.00
2022-09-28T19:13:13.448Z,4.15
2022-09-28T19:15:43.779Z,3.03
2022-09-28T19:18:12.540Z,2.30
2022-09-28T19:20:41.339Z,1.77
2022-09-28T19:23:10.139Z,2.30
2022-09-28T19:25:40.421Z,22.00
2022-09-28T19:28:09.167Z,2.65
2022-09-28T19:30:38.106Z,2.42
2022-09-28T19:33:08.207Z,2.42
2022-09-28T19:35:37.182Z,1.60
2022-09-28T19:38:06.388Z,3.35
2022-09-28T19:40:38.633Z,1.45
2022-09-28T19:43:07.450Z,1.50
2022-09-28T19:45:37.987Z,4.50
2022-09-28T19:48:08.273Z,2.38
2022-09-28T19:50:37.107Z,2.33
2022-09-28T19:53:06.792Z,2.25
2022-09-28T19:55:36.298Z,2.20
2022-09-28T19:58:05.301Z,2.20
2022-09-28T20:00:33.992Z,2.13
2022-09-28T20:03:02.742Z,2.75
2022-09-28T20:05:32.922Z,8.10
2022-09-28T20:10:30.034Z,1.83
2022-09-28T20:12:59.037Z,2.00
2022-09-28T20:15:28.272Z,1.48
2022-09-28T20:17:58.167Z,1.88
2022-09-28T20:20:27.929Z,1.35
2022-09-28T20:22:58.136Z,2.47
2022-09-28T20:25:26.740Z,1.95
2022-09-28T20:27:55.828Z,1.52
2022-09-28T20:30:24.424Z,1.58
2022-09-28T20:32:53.018Z,1.30
2022-09-28T20:35:30.611Z,1.00
2022-09-28T20:38:08.167Z,1.10
2022-09-28T20:40:36.989Z,1.65
2022-09-28T20:43:07.202Z,1.92
2022-09-28T20:45:38.236Z,1.27
2022-09-28T20:48:07.562Z,1.05
2022-09-28T20:50:36.143Z,1.20
2022-09-28T20:53:06.085Z,1.35
2022-09-28T20:55:34.705Z,0.95
2022-09-28T20:58:05.071Z,1.33
2022-09-28T21:00:33.716Z,1.35
2022-09-28T21:03:02.299Z,2.80
2022-09-28T21:05:30.918Z,1.30
2022-09-28T21:08:00.127Z,1.05
2022-09-28T21:10:30.412Z,0.98
2022-09-28T21:12:58.949Z,1.05
2022-09-28T21:15:27.677Z,1.30
2022-09-28T21:17:56.297Z,1.02
2022-09-28T21:20:25.002Z,0.95
2022-09-28T21:22:53.546Z,1.02
2022-09-28T21:25:22.160Z,1.00
2022-09-28T21:27:53.262Z,1.50
2022-09-28T21:30:21.937Z,1.00
2022-09-28T21:32:52.287Z,1.67
2022-09-28T21:35:20.829Z,0.98
2022-09-28T21:37:49.777Z,1.08
2022-09-28T21:40:20.077Z,1.92
2022-09-28T21:42:48.720Z,2.45
2022-09-28T21:45:18.727Z,2.67
2022-09-28T21:47:52.999Z,1.25
2022-09-28T21:50:23.930Z,1.83
2022-09-28T21:52:54.501Z,1.75
2022-09-28T21:55:25.293Z,1.00
2022-09-28T21:57:53.867Z,1.40
2022-09-28T22:00:24.367Z,1.02
2022-09-28T22:02:53.033Z,1.55
2022-09-28T22:05:21.770Z,1.67
2022-09-28T22:07:50.261Z,1.27
2022-09-28T22:10:19.077Z,0.80
2022-09-28T22:12:47.620Z,1.00
2022-09-28T22:15:16.340Z,0.93
2022-09-28T22:17:46.324Z,0.80
2022-09-28T22:20:14.929Z,0.90
2022-09-28T22:22:43.565Z,0.90
2022-09-28T22:25:12.148Z,2.85
2022-09-28T22:27:40.729Z,0.75
2022-09-28T22:30:10.584Z,0.60
2022-09-28T22:32:39.221Z,1.60
2022-09-28T22:35:10.460Z,1.10
2022-09-28T22:37:39.078Z,1.52
2022-09-28T22:40:11.209Z,0.80
2022-09-28T22:42:40.015Z,1.52
2022-09-28T22:45:09.997Z,0.88
2022-09-28T22:47:38.702Z,0.40
2022-09-28T22:50:09.821Z,0.63
2022-09-28T22:52:38.378Z,0.43
2022-09-28T22:55:08.008Z,0.40
2022-09-28T22:57:36.556Z,0.30
2022-09-28T23:00:06.482Z,0.40
2022-09-28T23:02:35.271Z,1.02
2022-09-28T23:05:04.059Z,0.47
2022-09-28T23:07:34.314Z,0.38
2022-09-28T23:10:02.881Z,0.38
2022-09-28T23:12:33.392Z,1.13
2022-09-28T23:15:02.085Z,1.52
2022-09-28T23:17:30.649Z,0.77
2022-09-28T23:19:59.233Z,0.30
2022-09-28T23:22:27.835Z,0.50
2022-09-28T23:24:57.811Z,0.82
2022-09-28T23:27:26.368Z,0.55
2022-09-28T23:29:54.949Z,0.40
2022-09-28T23:32:26.533Z,0.28
2022-09-28T23:34:57.168Z,1.35
2022-09-28T23:37:25.841Z,0.38
2022-09-28T23:39:54.516Z,0.60
2022-09-28T23:42:24.661Z,1.50
2022-09-28T23:44:53.256Z,0.50
2022-09-28T23:47:21.925Z,0.52
2022-09-28T23:49:50.693Z,0.35
2022-09-28T23:52:19.334Z,0.32
2022-09-28T23:54:47.819Z,0.40
2022-09-28T23:57:16.320Z,0.30
2022-09-28T23:59:46.278Z,0.40
